createdAt,value
2022-10-06T00:01:00.085Z,99.99
2022-10-06T00:01:59.414Z,99.99
2022-10-06T00:02:59.534Z,99.99
2022-10-06T00:03:59.394Z,99.99
2022-10-06T00:04:59.394Z,99.99
2022-10-06T00:05:59.381Z,99.99
2022-10-06T00:06:59.375Z,99.99
2022-10-06T00:07:59.354Z,99.99
2022-10-06T00:08:59.364Z,99.99
2022-10-06T00:09:59.335Z,99.99
2022-10-06T00:10:59.326Z,99.99
2022-10-06T00:11:59.315Z,99.99
2022-10-06T00:12:59.307Z,99.99
2022-10-06T00:13:59.298Z,99.99
2022-10-06T00:14:59.292Z,99.99
2022-10-06T00:15:59.350Z,99.99
2022-10-06T00:16:59.274Z,99.99
2022-10-06T00:17:59.252Z,99.99
2022-10-06T00:18:59.245Z,99.99
2022-10-06T00:19:59.227Z,99.99
2022-10-06T00:20:59.240Z,99.99
2022-10-06T00:21:59.208Z,99.99
2022-10-06T00:22:59.529Z,99.99
2022-10-06T00:23:59.187Z,99.99
2022-10-06T00:24:59.185Z,99.99
2022-10-06T00:25:59.180Z,99.99
2022-10-06T00:26:59.162Z,99.90
2022-10-06T00:27:59.202Z,99.99
2022-10-06T00:28:59.138Z,99.99
2022-10-06T00:29:59.120Z,99.99
2022-10-06T00:30:59.164Z,99.99
2022-10-06T00:31:59.130Z,99.99
2022-10-06T00:32:59.101Z,99.99
2022-10-06T00:33:59.160Z,99.99
2022-10-06T00:34:59.152Z,99.99
2022-10-06T00:35:59.083Z,99.99
2022-10-06T00:36:59.061Z,99.99
2022-10-06T00:37:59.043Z,99.99
2022-10-06T00:38:59.031Z,99.99
2022-10-06T00:39:59.021Z,99.99
2022-10-06T00:40:59.019Z,99.99
2022-10-06T00:41:58.994Z,99.99
2022-10-06T00:42:58.992Z,99.99
2022-10-06T00:43:58.992Z,99.99
2022-10-06T00:44:58.973Z,99.99
2022-10-06T00:45:59.799Z,99.99
2022-10-06T00:46:59.443Z,99.99
2022-10-06T00:47:58.931Z,99.99
2022-10-06T00:48:58.937Z,99.99
2022-10-06T00:49:58.912Z,99.99
2022-10-06T00:50:59.092Z,99.99
2022-10-06T00:51:59.477Z,99.99
2022-10-06T00:52:58.876Z,99.99
2022-10-06T00:53:58.890Z,99.99
2022-10-06T00:54:58.868Z,99.99
2022-10-06T00:55:58.858Z,99.99
2022-10-06T00:56:58.835Z,99.99
2022-10-06T00:57:58.827Z,99.99
2022-10-06T00:58:58.814Z,99.99
2022-10-06T00:59:58.817Z,99.99
2022-10-06T01:00:58.807Z,99.99
2022-10-06T01:01:58.795Z,99.99
2022-10-06T01:02:58.828Z,99.99
2022-10-06T01:03:58.788Z,99.99
2022-10-06T01:04:58.771Z,99.99
2022-10-06T01:05:58.748Z,99.99
2022-10-06T01:06:58.731Z,99.99
2022-10-06T01:07:58.730Z,99.99
2022-10-06T01:08:58.869Z,99.99
2022-10-06T01:09:58.730Z,99.99
2022-10-06T01:10:58.686Z,99.99
2022-10-06T01:11:58.690Z,99.99
2022-10-06T01:12:58.671Z,99.99
2022-10-06T01:13:58.987Z,99.99
2022-10-06T01:14:58.641Z,99.99
2022-10-06T01:15:58.699Z,99.99
2022-10-06T01:16:58.633Z,99.99
2022-10-06T01:17:58.630Z,99.99
2022-10-06T01:18:58.615Z,99.99
2022-10-06T01:19:58.592Z,99.99
2022-10-06T01:20:58.590Z,99.99
2022-10-06T01:21:58.573Z,99.99
2022-10-06T01:22:58.952Z,99.99
2022-10-06T01:23:58.568Z,99.99
2022-10-06T01:24:58.983Z,99.99
2022-10-06T01:25:58.541Z,99.99
2022-10-06T01:26:58.704Z,99.99
2022-10-06T01:27:58.566Z,99.99
2022-10-06T01:28:58.504Z,99.99
2022-10-06T01:29:58.526Z,99.99
2022-10-06T01:30:58.518Z,99.99
2022-10-06T01:31:58.473Z,99.99
2022-10-06T01:32:58.455Z,99.99
2022-10-06T01:33:58.456Z,99.99
2022-10-06T01:34:58.436Z,99.99
2022-10-06T01:35:58.435Z,99.99
2022-10-06T01:36:58.418Z,99.99
2022-10-06T01:37:58.516Z,99.99
2022-10-06T01:38:58.396Z,99.99
2022-10-06T01:39:58.388Z,99.99
2022-10-06T01:40:58.375Z,99.99
2022-10-06T01:41:58.388Z,99.99
2022-10-06T01:42:58.515Z,99.99
2022-10-06T01:43:58.357Z,99.99
2022-10-06T01:44:58.358Z,99.99
2022-10-06T01:45:59.197Z,99.99
2022-10-06T01:46:58.316Z,99.99
2022-10-06T01:47:58.311Z,99.99
2022-10-06T01:48:58.290Z,99.99
2022-10-06T01:49:58.460Z,99.99
2022-10-06T01:50:58.270Z,99.99
2022-10-06T01:51:58.277Z,99.99
2022-10-06T01:52:58.250Z,99.99
2022-10-06T01:53:58.259Z,99.99
2022-10-06T01:54:59.058Z,99.99
2022-10-06T01:55:58.229Z,99.99
2022-10-06T01:56:58.211Z,99.99
2022-10-06T01:57:58.213Z,99.99
2022-10-06T01:58:59.008Z,99.99
2022-10-06T01:59:58.992Z,99.99
2022-10-06T02:00:58.202Z,99.99
2022-10-06T02:01:58.238Z,99.99
2022-10-06T02:02:58.153Z,99.99
2022-10-06T02:03:58.987Z,99.99
2022-10-06T02:04:58.789Z,99.99
2022-10-06T02:05:58.201Z,99.99
2022-10-06T02:06:58.136Z,99.99
2022-10-06T02:07:58.129Z,99.99
2022-10-06T02:08:58.098Z,99.99
2022-10-06T02:09:58.095Z,99.99
2022-10-06T02:10:58.095Z,99.99
2022-10-06T02:11:58.088Z,99.99
2022-10-06T02:12:58.074Z,99.99
2022-10-06T02:13:58.866Z,99.99
2022-10-06T02:14:58.047Z,99.99
2022-10-06T02:15:58.061Z,99.99
2022-10-06T02:16:58.006Z,99.99
2022-10-06T02:17:58.798Z,99.99
2022-10-06T02:18:57.985Z,99.99
2022-10-06T02:19:57.990Z,99.99
2022-10-06T02:20:57.968Z,99.99
2022-10-06T02:21:57.958Z,99.99
2022-10-06T02:22:57.938Z,99.99
2022-10-06T02:23:57.962Z,99.99
2022-10-06T02:24:57.919Z,99.99
2022-10-06T02:25:57.929Z,99.99
2022-10-06T02:26:57.901Z,99.99
2022-10-06T02:27:57.950Z,99.99
2022-10-06T02:28:57.897Z,99.99
2022-10-06T02:29:57.879Z,99.99
2022-10-06T02:30:57.893Z,99.99
2022-10-06T02:31:57.869Z,99.99
2022-10-06T02:32:57.840Z,99.99
2022-10-06T02:33:57.839Z,99.99
2022-10-06T02:34:57.828Z,99.99
2022-10-06T02:35:57.859Z,99.99
2022-10-06T02:36:57.802Z,99.99
2022-10-06T02:37:57.792Z,99.99
2022-10-06T02:38:57.784Z,99.99
2022-10-06T02:39:57.791Z,99.99
2022-10-06T02:40:57.763Z,99.99
2022-10-06T02:41:57.763Z,99.99
2022-10-06T02:42:57.732Z,99.99
2022-10-06T02:43:57.751Z,99.99
2022-10-06T02:44:57.713Z,99.99
2022-10-06T02:45:57.712Z,99.99
2022-10-06T02:46:57.766Z,99.99
2022-10-06T02:47:57.695Z,99.99
2022-10-06T02:48:57.685Z,99.99
2022-10-06T02:49:57.709Z,99.99
2022-10-06T02:50:57.652Z,99.99
2022-10-06T02:51:57.656Z,99.99
2022-10-06T02:52:57.636Z,99.99
2022-10-06T02:53:57.635Z,99.99
2022-10-06T02:54:57.644Z,99.99
2022-10-06T02:55:57.614Z,99.99
2022-10-06T02:56:57.607Z,99.99
2022-10-06T02:57:57.586Z,99.99
2022-10-06T02:58:57.597Z,99.99
2022-10-06T02:59:57.567Z,99.99
2022-10-06T03:00:57.556Z,99.99
2022-10-06T03:01:57.647Z,99.99
2022-10-06T03:02:57.569Z,99.99
2022-10-06T03:03:57.529Z,99.99
2022-10-06T03:04:57.619Z,99.99
2022-10-06T03:05:57.508Z,99.99
2022-10-06T03:06:57.501Z,99.99
2022-10-06T03:07:57.490Z,99.99
2022-10-06T03:08:58.277Z,99.99
2022-10-06T03:09:57.459Z,99.99
2022-10-06T03:10:57.450Z,99.99
2022-10-06T03:11:57.449Z,99.99
2022-10-06T03:12:58.241Z,99.99
2022-10-06T03:13:57.441Z,99.99
2022-10-06T03:14:57.416Z,99.99
2022-10-06T03:15:57.509Z,99.99
2022-10-06T03:16:57.855Z,99.99
2022-10-06T03:17:57.396Z,99.99
2022-10-06T03:18:57.392Z,99.99
2022-10-06T03:19:57.381Z,99.99
2022-10-06T03:20:57.407Z,99.99
2022-10-06T03:21:57.523Z,99.99
2022-10-06T03:22:57.323Z,99.99
2022-10-06T03:23:58.123Z,99.99
2022-10-06T03:24:57.303Z,99.99
2022-10-06T03:25:58.114Z,99.99
2022-10-06T03:26:57.285Z,99.99
2022-10-06T03:27:57.374Z,99.99
2022-10-06T03:28:57.265Z,99.99
2022-10-06T03:29:57.263Z,99.99
2022-10-06T03:30:57.289Z,99.99
2022-10-06T03:31:57.245Z,99.99
2022-10-06T03:32:57.227Z,99.99
2022-10-06T03:33:57.224Z,99.99
2022-10-06T03:34:58.017Z,99.99
2022-10-06T03:35:57.217Z,99.99
2022-10-06T03:36:57.187Z,99.99
2022-10-06T03:37:57.184Z,99.99
2022-10-06T03:38:57.967Z,99.99
2022-10-06T03:39:57.209Z,99.99
2022-10-06T03:40:57.138Z,99.99
2022-10-06T03:41:57.147Z,99.99
2022-10-06T03:42:57.126Z,99.99
2022-10-06T03:43:57.131Z,99.99
2022-10-06T03:44:57.099Z,99.99
2022-10-06T03:45:57.099Z,99.99
2022-10-06T03:46:57.122Z,99.99
2022-10-06T03:47:57.071Z,99.99
2022-10-06T03:48:57.071Z,99.99
2022-10-06T03:49:57.059Z,99.99
2022-10-06T03:50:57.073Z,99.99
2022-10-06T03:51:57.042Z,99.99
2022-10-06T03:52:57.021Z,99.99
2022-10-06T03:53:57.010Z,99.99
2022-10-06T03:54:57.016Z,99.99
2022-10-06T03:55:57.004Z,99.99
2022-10-06T03:56:57.064Z,99.99
2022-10-06T03:57:56.985Z,99.99
2022-10-06T03:58:56.971Z,99.99
2022-10-06T03:59:56.964Z,99.99
2022-10-06T04:00:56.995Z,99.99
2022-10-06T04:01:57.078Z,99.99
2022-10-06T04:02:56.924Z,99.99
2022-10-06T04:03:56.919Z,99.99
2022-10-06T04:04:56.904Z,99.99
2022-10-06T04:05:56.893Z,99.99
2022-10-06T04:06:56.877Z,99.99
2022-10-06T04:07:56.868Z,99.99
2022-10-06T04:08:56.845Z,99.99
2022-10-06T04:09:56.847Z,99.99
2022-10-06T04:10:56.826Z,99.99
2022-10-06T04:11:56.833Z,99.99
2022-10-06T04:12:56.806Z,99.99
2022-10-06T04:13:56.815Z,99.99
2022-10-06T04:15:00.131Z,99.99
2022-10-06T04:15:56.809Z,99.99
2022-10-06T04:16:56.767Z,99.99
2022-10-06T04:17:56.769Z,99.99
2022-10-06T04:18:56.760Z,99.99
2022-10-06T04:19:56.747Z,99.99
2022-10-06T04:20:56.786Z,99.99
2022-10-06T04:21:56.728Z,99.99
2022-10-06T04:22:56.709Z,99.99
2022-10-06T04:23:56.718Z,99.99
2022-10-06T04:24:56.709Z,99.99
2022-10-06T04:25:56.876Z,99.99
2022-10-06T04:26:56.660Z,99.99
2022-10-06T04:27:56.690Z,99.99
2022-10-06T04:28:56.651Z,99.99
2022-10-06T04:29:56.640Z,99.99
2022-10-06T04:30:56.622Z,99.99
2022-10-06T04:31:56.695Z,99.99
2022-10-06T04:32:56.600Z,99.99
2022-10-06T04:33:56.599Z,99.99
2022-10-06T04:34:56.600Z,99.99
2022-10-06T04:35:56.586Z,99.99
2022-10-06T04:36:56.564Z,99.99
2022-10-06T04:37:56.589Z,99.99
2022-10-06T04:38:56.542Z,99.99
2022-10-06T04:39:56.541Z,99.99
2022-10-06T04:40:56.547Z,99.99
2022-10-06T04:41:56.519Z,99.99
2022-10-06T04:42:56.503Z,99.99
2022-10-06T04:43:56.512Z,99.99
2022-10-06T04:44:56.484Z,99.99
2022-10-06T04:45:56.505Z,99.99
2022-10-06T04:46:56.708Z,99.99
2022-10-06T04:47:57.265Z,99.99
2022-10-06T04:48:56.466Z,99.99
2022-10-06T04:49:56.445Z,99.99
2022-10-06T04:50:56.416Z,99.99
2022-10-06T04:51:56.416Z,99.99
2022-10-06T04:52:56.403Z,99.99
2022-10-06T04:53:56.386Z,99.99
2022-10-06T04:54:56.387Z,99.99
2022-10-06T04:55:56.379Z,99.99
2022-10-06T04:56:56.365Z,99.99
2022-10-06T04:57:56.347Z,99.99
2022-10-06T04:58:56.338Z,99.99
2022-10-06T04:59:56.327Z,99.99
2022-10-06T05:00:56.389Z,99.99
2022-10-06T05:01:56.373Z,99.99
2022-10-06T05:02:56.304Z,99.99
2022-10-06T05:03:56.299Z,99.99
2022-10-06T05:04:56.279Z,99.99
2022-10-06T05:05:56.279Z,99.99
2022-10-06T05:06:56.269Z,99.99
2022-10-06T05:07:56.250Z,99.99
2022-10-06T05:08:56.239Z,99.99
2022-10-06T05:09:56.520Z,99.99
2022-10-06T05:10:56.218Z,99.99
2022-10-06T05:11:56.201Z,99.99
2022-10-06T05:12:56.201Z,99.99
2022-10-06T05:13:56.213Z,99.99
2022-10-06T05:14:56.262Z,99.99
2022-10-06T05:15:56.162Z,99.99
2022-10-06T05:16:56.168Z,99.99
2022-10-06T05:17:56.142Z,99.99
2022-10-06T05:18:56.142Z,99.99
2022-10-06T05:19:56.124Z,99.99
2022-10-06T05:20:56.113Z,99.99
2022-10-06T05:21:56.095Z,99.99
2022-10-06T05:22:56.094Z,99.99
2022-10-06T05:23:56.099Z,99.99
2022-10-06T05:24:57.035Z,99.99
2022-10-06T05:25:56.065Z,99.99
2022-10-06T05:27:00.850Z,99.99
2022-10-06T05:27:57.060Z,99.99
2022-10-06T05:28:56.038Z,99.99
2022-10-06T05:29:56.027Z,99.99
2022-10-06T05:30:56.017Z,99.99
2022-10-06T05:31:56.047Z,99.99
2022-10-06T05:32:55.994Z,99.99
2022-10-06T05:33:55.983Z,99.99
2022-10-06T05:34:55.976Z,99.99
2022-10-06T05:35:55.957Z,99.99
2022-10-06T05:36:55.960Z,99.99
2022-10-06T05:37:56.050Z,99.99
2022-10-06T05:38:55.985Z,99.99
2022-10-06T05:39:55.918Z,99.99
2022-10-06T05:40:55.907Z,99.99
2022-10-06T05:41:55.899Z,99.99
2022-10-06T05:42:55.899Z,99.99
2022-10-06T05:43:55.878Z,99.99
2022-10-06T05:44:55.867Z,99.99
2022-10-06T05:45:55.915Z,99.99
2022-10-06T05:46:55.849Z,99.99
2022-10-06T05:47:55.837Z,99.99
2022-10-06T05:48:55.827Z,99.99
2022-10-06T05:49:55.811Z,99.99
2022-10-06T05:50:55.820Z,99.99
2022-10-06T05:51:55.794Z,99.99
2022-10-06T05:52:55.799Z,99.99
2022-10-06T05:53:55.772Z,99.99
2022-10-06T05:54:55.762Z,99.99
2022-10-06T05:55:55.752Z,99.99
2022-10-06T05:56:55.751Z,99.99
2022-10-06T05:57:55.724Z,99.99
2022-10-06T05:58:55.732Z,99.99
2022-10-06T05:59:55.763Z,99.99
2022-10-06T06:00:55.733Z,99.99
2022-10-06T06:01:55.817Z,99.99
2022-10-06T06:02:55.748Z,99.99
2022-10-06T06:03:55.675Z,99.99
2022-10-06T06:04:55.664Z,99.99
2022-10-06T06:05:55.658Z,99.99
2022-10-06T06:06:55.641Z,99.99
2022-10-06T06:07:55.625Z,99.99
2022-10-06T06:08:55.644Z,99.99
2022-10-06T06:09:55.915Z,99.99
2022-10-06T06:10:55.604Z,99.99
2022-10-06T06:11:55.582Z,99.99
2022-10-06T06:12:55.580Z,99.99
2022-10-06T06:13:56.386Z,99.99
2022-10-06T06:14:55.574Z,99.99
2022-10-06T06:15:55.537Z,99.99
2022-10-06T06:16:55.627Z,99.99
2022-10-06T06:17:55.635Z,99.99
2022-10-06T06:18:55.517Z,99.99
2022-10-06T06:19:55.505Z,99.99
2022-10-06T06:20:55.498Z,99.99
2022-10-06T06:21:55.478Z,99.99
2022-10-06T06:22:55.479Z,99.99
2022-10-06T06:23:55.467Z,99.99
2022-10-06T06:24:55.469Z,99.99
2022-10-06T06:25:58.765Z,99.99
2022-10-06T06:26:56.440Z,99.99
2022-10-06T06:27:55.513Z,99.99
2022-10-06T06:28:55.473Z,99.99
2022-10-06T06:29:55.399Z,99.99
2022-10-06T06:30:55.456Z,99.99
2022-10-06T06:31:55.391Z,99.99
2022-10-06T06:32:55.380Z,99.99
2022-10-06T06:33:55.359Z,99.99
2022-10-06T06:34:55.350Z,99.99
2022-10-06T06:35:55.342Z,99.99
2022-10-06T06:36:55.332Z,99.99
2022-10-06T06:37:55.415Z,99.99
2022-10-06T06:38:55.312Z,99.99
2022-10-06T06:39:55.311Z,99.99
2022-10-06T06:40:55.294Z,99.99
2022-10-06T06:41:55.273Z,99.99
2022-10-06T06:42:55.273Z,99.99
2022-10-06T06:43:55.296Z,99.99
2022-10-06T06:44:55.252Z,99.99
2022-10-06T06:45:55.288Z,99.99
2022-10-06T06:46:55.225Z,99.99
2022-10-06T06:47:55.220Z,99.99
2022-10-06T06:48:55.206Z,99.99
2022-10-06T06:49:55.205Z,99.99
2022-10-06T06:50:55.186Z,99.78
2022-10-06T06:51:55.168Z,99.27
2022-10-06T06:52:55.164Z,98.96
2022-10-06T06:53:55.146Z,98.86
2022-10-06T06:54:55.248Z,98.65
2022-10-06T06:55:55.128Z,98.65
2022-10-06T06:56:55.129Z,98.50
2022-10-06T06:57:55.113Z,98.40
2022-10-06T06:58:55.128Z,98.50
2022-10-06T06:59:55.088Z,98.40
2022-10-06T07:00:55.118Z,98.20
2022-10-06T07:01:55.091Z,98.15
2022-10-06T07:02:55.070Z,98.15
2022-10-06T07:03:58.058Z,98.15
2022-10-06T07:04:55.049Z,98.36
2022-10-06T07:05:55.031Z,97.60
2022-10-06T07:06:55.020Z,97.49
2022-10-06T07:07:55.009Z,97.24
2022-10-06T07:08:54.990Z,96.84
2022-10-06T07:09:54.979Z,96.43
2022-10-06T07:10:54.972Z,95.67
2022-10-06T07:11:54.969Z,94.65
2022-10-06T07:12:54.963Z,94.14
2022-10-06T07:13:54.934Z,93.28
2022-10-06T07:14:55.113Z,92.46
2022-10-06T07:15:54.936Z,91.85
2022-10-06T07:16:54.918Z,92.01
2022-10-06T07:17:54.892Z,92.52
2022-10-06T07:18:54.883Z,91.50
2022-10-06T07:19:54.874Z,90.38
2022-10-06T07:20:54.874Z,90.75
2022-10-06T07:21:54.865Z,90.44
2022-10-06T07:22:54.846Z,90.24
2022-10-06T07:23:54.835Z,88.81
2022-10-06T07:24:54.834Z,88.98
2022-10-06T07:25:54.805Z,88.06
2022-10-06T07:26:54.817Z,89.03
2022-10-06T07:27:54.798Z,86.08
2022-10-06T07:28:54.788Z,86.90
2022-10-06T07:29:55.162Z,86.96
2022-10-06T07:30:54.852Z,87.37
2022-10-06T07:31:54.746Z,89.30
2022-10-06T07:32:54.759Z,88.13
2022-10-06T07:33:54.726Z,88.24
2022-10-06T07:34:55.130Z,87.32
2022-10-06T07:35:54.718Z,85.96
2022-10-06T07:36:54.699Z,85.46
2022-10-06T07:37:54.688Z,85.15
2022-10-06T07:38:54.680Z,85.35
2022-10-06T07:39:54.690Z,84.44
2022-10-06T07:41:17.992Z,83.28
2022-10-06T07:41:55.651Z,83.79
2022-10-06T07:42:54.640Z,84.70
2022-10-06T07:43:54.620Z,83.65
2022-10-06T07:44:55.174Z,82.12
2022-10-06T07:45:54.631Z,83.54
2022-10-06T07:46:54.599Z,84.72
2022-10-06T07:47:54.724Z,81.48
2022-10-06T07:48:54.609Z,81.78
2022-10-06T07:49:54.553Z,84.28
2022-10-06T07:50:54.653Z,83.06
2022-10-06T07:51:54.544Z,83.26
2022-10-06T07:52:54.533Z,81.91
2022-10-06T07:53:54.514Z,81.50
2022-10-06T07:54:54.893Z,80.86
2022-10-06T07:55:54.486Z,80.96
2022-10-06T07:56:54.510Z,82.14
2022-10-06T07:57:54.486Z,81.52
2022-10-06T07:58:54.469Z,79.67
2022-10-06T07:59:57.060Z,78.35
2022-10-06T08:00:54.448Z,79.06
2022-10-06T08:01:54.446Z,79.13
2022-10-06T08:02:54.493Z,79.22
2022-10-06T08:03:54.418Z,79.49
2022-10-06T08:04:54.839Z,77.77
2022-10-06T08:05:54.379Z,79.29
2022-10-06T08:06:54.398Z,79.59
2022-10-06T08:07:54.379Z,78.78
2022-10-06T08:08:54.369Z,77.43
2022-10-06T08:09:54.350Z,77.23
2022-10-06T08:10:54.340Z,76.82
2022-10-06T08:11:54.322Z,77.64
2022-10-06T08:12:54.311Z,75.92
2022-10-06T08:13:54.311Z,77.03
2022-10-06T08:14:54.651Z,76.18
2022-10-06T08:15:54.301Z,76.89
2022-10-06T08:16:54.282Z,75.88
2022-10-06T08:17:54.268Z,77.60
2022-10-06T08:18:54.251Z,77.76
2022-10-06T08:19:54.241Z,77.26
2022-10-06T08:20:54.245Z,76.95
2022-10-06T08:21:54.224Z,77.02
2022-10-06T08:22:54.213Z,75.31
2022-10-06T08:23:54.202Z,76.01
2022-10-06T08:25:05.901Z,76.18
2022-10-06T08:25:55.192Z,73.45
2022-10-06T08:26:54.177Z,73.75
2022-10-06T08:27:54.164Z,74.56
2022-10-06T08:28:54.146Z,73.62
2022-10-06T08:29:54.134Z,73.92
2022-10-06T08:30:54.127Z,73.32
2022-10-06T08:31:54.201Z,73.72
2022-10-06T08:32:54.117Z,75.34
2022-10-06T08:33:54.097Z,74.93
2022-10-06T08:34:54.313Z,73.62
2022-10-06T08:35:54.087Z,75.30
2022-10-06T08:37:18.705Z,74.49
2022-10-06T08:37:55.046Z,73.88
2022-10-06T08:38:54.048Z,73.18
2022-10-06T08:39:54.044Z,74.15
2022-10-06T08:40:54.030Z,74.55
2022-10-06T08:41:54.011Z,75.16
2022-10-06T08:42:54.008Z,76.51
2022-10-06T08:43:53.988Z,77.11
2022-10-06T08:44:54.234Z,77.92
2022-10-06T08:46:53.964Z,78.32
2022-10-06T08:47:53.952Z,78.39
2022-10-06T08:48:53.941Z,77.98
2022-10-06T08:49:54.282Z,76.37
2022-10-06T08:50:53.942Z,76.17
2022-10-06T08:51:53.903Z,76.34
2022-10-06T08:52:54.053Z,76.14
2022-10-06T08:53:53.902Z,75.63
2022-10-06T08:54:53.877Z,76.84
2022-10-06T08:55:53.865Z,74.18
2022-10-06T08:56:53.863Z,74.49
2022-10-06T08:57:53.891Z,74.08
2022-10-06T08:58:53.838Z,74.08
2022-10-06T08:59:54.138Z,75.35
2022-10-06T09:00:53.889Z,73.35
2022-10-06T09:01:53.883Z,72.74
2022-10-06T09:02:53.796Z,72.44
2022-10-06T09:03:53.777Z,73.24
2022-10-06T09:04:53.776Z,73.04
2022-10-06T09:05:53.749Z,73.24
2022-10-06T09:06:53.750Z,73.44
2022-10-06T09:07:53.731Z,72.34
2022-10-06T09:08:53.730Z,73.44
2022-10-06T09:09:54.061Z,74.55
2022-10-06T09:10:53.739Z,72.14
2022-10-06T09:11:53.691Z,71.40
2022-10-06T09:12:53.692Z,71.77
2022-10-06T09:13:53.674Z,71.97
2022-10-06T09:14:53.666Z,70.43
2022-10-06T09:15:53.682Z,70.32
2022-10-06T09:16:53.634Z,69.62
2022-10-06T09:17:53.625Z,70.93
2022-10-06T09:19:08.074Z,69.22
2022-10-06T09:19:54.937Z,69.59
2022-10-06T09:20:53.594Z,68.99
2022-10-06T09:21:53.679Z,70.19
2022-10-06T09:22:53.567Z,70.06
2022-10-06T09:23:53.579Z,70.86
2022-10-06T09:24:53.559Z,70.03
2022-10-06T09:25:53.545Z,70.12
2022-10-06T09:26:53.535Z,68.89
2022-10-06T09:27:53.549Z,69.79
2022-10-06T09:28:53.516Z,68.39
2022-10-06T09:29:53.759Z,68.39
2022-10-06T09:30:55.481Z,69.19
2022-10-06T09:31:53.566Z,67.88
2022-10-06T09:32:53.460Z,68.69
2022-10-06T09:33:53.559Z,67.58
2022-10-06T09:34:53.441Z,67.69
2022-10-06T09:35:53.439Z,67.49
2022-10-06T09:36:56.662Z,66.68
2022-10-06T09:37:54.411Z,69.49
2022-10-06T09:38:53.404Z,69.96
2022-10-06T09:39:53.672Z,67.96
2022-10-06T09:40:53.423Z,68.26
2022-10-06T09:41:53.896Z,67.22
2022-10-06T09:42:53.353Z,69.23
2022-10-06T09:43:53.354Z,68.82
2022-10-06T09:44:53.337Z,66.52
2022-10-06T09:45:53.334Z,69.23
2022-10-06T09:46:53.468Z,67.19
2022-10-06T09:47:53.305Z,67.19
2022-10-06T09:48:53.287Z,67.99
2022-10-06T09:49:54.102Z,68.29
2022-10-06T09:50:53.267Z,65.28
2022-10-06T09:51:53.267Z,66.72
2022-10-06T09:52:53.249Z,67.99
2022-10-06T09:53:53.248Z,66.89
2022-10-06T09:54:53.228Z,67.22
2022-10-06T09:55:53.326Z,68.19
2022-10-06T09:56:53.292Z,66.89
2022-10-06T09:57:53.206Z,67.99
2022-10-06T09:58:53.190Z,65.09
2022-10-06T09:59:53.600Z,66.89
2022-10-06T10:00:53.241Z,65.78
2022-10-06T10:01:53.160Z,66.78
2022-10-06T10:02:53.184Z,66.39
2022-10-06T10:04:19.897Z,66.28
2022-10-06T10:04:54.132Z,65.86
2022-10-06T10:05:53.121Z,64.28
2022-10-06T10:06:53.104Z,64.78
2022-10-06T10:07:53.103Z,67.19
2022-10-06T10:08:53.085Z,65.66
2022-10-06T10:09:53.299Z,64.75
2022-10-06T10:10:53.225Z,65.66
2022-10-06T10:11:53.063Z,65.55
2022-10-06T10:12:53.045Z,64.95
2022-10-06T10:13:53.044Z,65.36
2022-10-06T10:14:53.024Z,65.66
2022-10-06T10:15:53.067Z,65.86
2022-10-06T10:16:53.491Z,65.75
2022-10-06T10:17:53.788Z,64.95
2022-10-06T10:18:52.977Z,64.52
2022-10-06T10:19:52.994Z,64.03
2022-10-06T10:20:52.956Z,65.39
2022-10-06T10:21:52.954Z,64.49
2022-10-06T10:22:52.966Z,64.56
2022-10-06T10:23:52.930Z,64.86
2022-10-06T10:24:52.917Z,64.53
2022-10-06T10:25:52.919Z,65.93
2022-10-06T10:26:52.891Z,62.34
2022-10-06T10:27:52.914Z,63.13
2022-10-06T10:28:52.883Z,61.76
2022-10-06T10:29:52.878Z,63.36
2022-10-06T10:30:53.383Z,62.70
2022-10-06T10:31:52.906Z,63.29
2022-10-06T10:32:52.844Z,62.99
2022-10-06T10:34:05.132Z,63.29
2022-10-06T10:34:54.088Z,64.12
2022-10-06T10:35:52.804Z,64.49
2022-10-06T10:36:52.795Z,65.39
2022-10-06T10:37:52.792Z,62.86
2022-10-06T10:38:52.790Z,64.26
2022-10-06T10:39:52.766Z,63.66
2022-10-06T10:40:52.927Z,63.03
2022-10-06T10:41:52.757Z,63.73
2022-10-06T10:42:52.730Z,63.93
2022-10-06T10:43:52.728Z,64.83
2022-10-06T10:44:53.507Z,65.00
2022-10-06T10:45:52.710Z,61.54
2022-10-06T10:46:52.794Z,63.83
2022-10-06T10:47:52.679Z,62.93
2022-10-06T10:48:53.492Z,62.43
2022-10-06T10:49:53.471Z,63.13
2022-10-06T10:50:52.652Z,64.13
2022-10-06T10:51:52.647Z,64.90
2022-10-06T10:52:52.623Z,63.70
2022-10-06T10:53:53.424Z,62.77
2022-10-06T10:54:52.609Z,61.71
2022-10-06T10:55:52.604Z,64.90
2022-10-06T10:56:52.583Z,63.80
2022-10-06T10:57:52.754Z,63.43
2022-10-06T10:58:53.378Z,64.13
2022-10-06T10:59:52.568Z,65.00
2022-10-06T11:00:52.583Z,64.20
2022-10-06T11:01:52.583Z,64.27
2022-10-06T11:02:52.516Z,61.41
2022-10-06T11:03:52.525Z,63.07
2022-10-06T11:04:52.497Z,63.07
2022-10-06T11:05:52.520Z,62.27
2022-10-06T11:06:52.498Z,62.40
2022-10-06T11:07:52.661Z,63.40
2022-10-06T11:08:52.460Z,64.67
2022-10-06T11:09:52.460Z,61.98
2022-10-06T11:10:52.438Z,62.07
2022-10-06T11:11:52.583Z,61.68
2022-10-06T11:12:52.420Z,63.87
2022-10-06T11:13:52.445Z,62.07
2022-10-06T11:14:52.400Z,64.77
2022-10-06T11:15:52.454Z,62.63
2022-10-06T11:16:52.372Z,63.33
2022-10-06T11:17:52.372Z,63.93
2022-10-06T11:18:52.363Z,67.36
2022-10-06T11:19:52.353Z,69.26
2022-10-06T11:20:52.334Z,64.83
2022-10-06T11:21:52.341Z,64.73
2022-10-06T11:22:52.313Z,63.23
2022-10-06T11:23:52.317Z,64.00
2022-10-06T11:24:52.338Z,64.20
2022-10-06T11:25:52.285Z,63.77
2022-10-06T11:26:52.276Z,65.64
2022-10-06T11:27:52.287Z,62.45
2022-10-06T11:28:52.249Z,62.31
2022-10-06T11:29:52.287Z,62.01
2022-10-06T11:30:52.378Z,61.71
2022-10-06T11:31:52.343Z,58.53
2022-10-06T11:32:52.210Z,59.42
2022-10-06T11:33:52.210Z,60.29
2022-10-06T11:34:52.196Z,60.09
2022-10-06T11:35:53.009Z,57.60
2022-10-06T11:36:52.180Z,58.70
2022-10-06T11:37:52.162Z,61.58
2022-10-06T11:38:52.141Z,58.72
2022-10-06T11:39:52.146Z,58.62
2022-10-06T11:40:52.125Z,59.52
2022-10-06T11:41:52.131Z,59.92
2022-10-06T11:42:52.102Z,60.65
2022-10-06T11:43:52.113Z,62.21
2022-10-06T11:44:52.092Z,61.79
2022-10-06T11:45:52.151Z,59.82
2022-10-06T11:46:52.063Z,60.42
2022-10-06T11:47:52.066Z,59.72
2022-10-06T11:48:52.053Z,60.85
2022-10-06T11:49:52.186Z,62.21
2022-10-06T11:50:52.021Z,61.69
2022-10-06T11:51:55.746Z,62.08
2022-10-06T11:52:53.818Z,60.49
2022-10-06T11:53:51.998Z,60.72
2022-10-06T11:54:51.983Z,63.51
2022-10-06T11:55:51.978Z,63.68
2022-10-06T11:56:51.960Z,63.58
2022-10-06T11:57:52.769Z,61.06
2022-10-06T11:58:51.969Z,61.72
2022-10-06T11:59:51.938Z,63.98
2022-10-06T12:00:51.928Z,59.23
2022-10-06T12:01:52.041Z,60.73
2022-10-06T12:02:52.811Z,60.80
2022-10-06T12:03:51.900Z,59.64
2022-10-06T12:04:51.889Z,59.83
2022-10-06T12:05:56.637Z,58.74
2022-10-06T12:06:52.853Z,59.31
2022-10-06T12:07:51.854Z,58.01
2022-10-06T12:08:52.195Z,58.01
2022-10-06T12:09:52.989Z,60.77
2022-10-06T12:10:51.815Z,58.88
2022-10-06T12:11:52.425Z,60.14
2022-10-06T12:13:06.226Z,59.65
2022-10-06T12:17:09.434Z,59.72
2022-10-06T12:17:11.537Z,59.19
2022-10-06T12:17:52.758Z,56.94
2022-10-06T12:18:51.737Z,57.53
2022-10-06T12:19:51.730Z,59.32
2022-10-06T12:20:52.511Z,56.94
2022-10-06T12:21:51.709Z,58.53
2022-10-06T12:22:51.707Z,57.83
2022-10-06T12:23:51.689Z,57.73
2022-10-06T12:24:51.771Z,57.81
2022-10-06T12:25:51.672Z,56.38
2022-10-06T12:26:51.662Z,57.73
2022-10-06T12:27:51.650Z,58.13
2022-10-06T12:28:51.635Z,57.21
2022-10-06T12:29:51.786Z,57.28
2022-10-06T12:30:51.629Z,55.62
2022-10-06T12:31:51.604Z,56.19
2022-10-06T12:32:51.594Z,55.89
2022-10-06T12:33:51.587Z,55.89
2022-10-06T12:34:51.575Z,57.04
2022-10-06T12:35:51.565Z,58.75
2022-10-06T12:36:51.557Z,57.99
2022-10-06T12:37:54.285Z,58.91
2022-10-06T12:38:51.526Z,62.75
2022-10-06T12:39:51.524Z,64.07
2022-10-06T12:40:51.508Z,63.64
2022-10-06T12:41:51.565Z,62.31
2022-10-06T12:42:51.494Z,61.39
2022-10-06T12:43:51.479Z,60.09
2022-10-06T12:44:51.471Z,61.71
2022-10-06T12:45:51.512Z,61.22
2022-10-06T12:46:52.021Z,63.14
2022-10-06T12:47:51.464Z,61.71
2022-10-06T12:48:51.422Z,61.69
2022-10-06T12:49:51.421Z,61.46
2022-10-06T12:50:51.405Z,58.67
2022-10-06T12:51:53.419Z,58.97
2022-10-06T12:52:51.382Z,61.09
2022-10-06T12:53:51.390Z,64.04
2022-10-06T12:54:51.375Z,62.48
2022-10-06T12:55:51.389Z,62.07